sensor_id;sensor_type;location;lat;lon;timestamp;temperature;humidity
79467;SHT30;68933;49.726;9.226;2023-04-24T00:02:01;12.6;73
79467;SHT30;68933;49.726;9.226;2023-04-24T00:04:14;12.6;73
79467;SHT30;68933;49.726;9.226;2023-04-24T00:06:27;12.6;72
79467;SHT30;68933;49.726;9.226;2023-04-24T00:08:40;12.6;72
79467;SHT30;68933;49.726;9.226;2023-04-24T00:10:53;12.6;72
79467;SHT30;68933;49.726;9.226;2023-04-24T00:13:06;12.6;72
79467;SHT30;68933;49.726;9.226;2023-04-24T00:15:19;12.6;72
79467;SHT30;68933;49.726;9.226;2023-04-24T00:17:32;12.6;72
79467;SHT30;68933;49.726;9.226;2023-04-24T00:19:45;12.6;72
79467;SHT30;68933;49.726;9.226;2023-04-24T00:21:58;12.6;72
79467;SHT30;68933;49.726;9.226;2023-04-24T00:24:11;12.6;72
79467;SHT30;68933;49.726;9.226;2023-04-24T00:26:24;12.6;72
79467;SHT30;68933;49.726;9.226;2023-04-24T00:28:37;12.6;72
79467;SHT30;68933;49.726;9.226;2023-04-24T00:30:50;12.7;72
79467;SHT30;68933;49.726;9.226;2023-04-24T00:33:03;12.7;72
79467;SHT30;68933;49.726;9.226;2023-04-24T00:35:16;12.7;72
79467;SHT30;68933;49.726;9.226;2023-04-24T00:37:29;12.7;73
79467;SHT30;68933;49.726;9.226;2023-04-24T00:39:42;12.7;73
79467;SHT30;68933;49.726;9.226;2023-04-24T00:41:55;12.7;73
79467;SHT30;68933;49.726;9.226;2023-04-24T00:44:08;12.7;73
79467;SHT30;68933;49.726;9.226;2023-04-24T00:46:21;12.7;73
79467;SHT30;68933;49.726;9.226;2023-04-24T00:48:34;12.8;73
79467;SHT30;68933;49.726;9.226;2023-04-24T00:50:47;12.8;73
79467;SHT30;68933;49.726;9.226;2023-04-24T00:53:00;12.8;73
79467;SHT30;68933;49.726;9.226;2023-04-24T00:55:13;12.8;73
79467;SHT30;68933;49.726;9.226;2023-04-24T00:57:26;12.8;73
79467;SHT30;68933;49.726;9.226;2023-04-24T00:59:39;12.7;73
79467;SHT30;68933;49.726;9.226;2023-04-24T01:01:52;12.7;73
79467;SHT30;68933;49.726;9.226;2023-04-24T01:04:05;12.6;73
79467;SHT30;68933;49.726;9.226;2023-04-24T01:06:18;12.6;73
79467;SHT30;68933;49.726;9.226;2023-04-24T01:08:31;12.6;73
79467;SHT30;68933;49.726;9.226;2023-04-24T01:10:44;12.6;73
79467;SHT30;68933;49.726;9.226;2023-04-24T01:12:57;12.6;73
79467;SHT30;68933;49.726;9.226;2023-04-24T01:15:10;12.6;73
79467;SHT30;68933;49.726;9.226;2023-04-24T01:17:23;12.6;73
79467;SHT30;68933;49.726;9.226;2023-04-24T01:19:36;12.6;73
79467;SHT30;68933;49.726;9.226;2023-04-24T01:21:50;12.6;73
79467;SHT30;68933;49.726;9.226;2023-04-24T01:24:02;12.6;73
79467;SHT30;68933;49.726;9.226;2023-04-24T01:26:16;12.5;73
79467;SHT30;68933;49.726;9.226;2023-04-24T01:28:28;12.5;73
79467;SHT30;68933;49.726;9.226;2023-04-24T01:30:41;12.5;72
79467;SHT30;68933;49.726;9.226;2023-04-24T01:32:54;12.5;72
79467;SHT30;68933;49.726;9.226;2023-04-24T01:35:07;12.5;72
79467;SHT30;68933;49.726;9.226;2023-04-24T01:37:20;12.5;72
79467;SHT30;68933;49.726;9.226;2023-04-24T01:39:33;12.5;72
79467;SHT30;68933;49.726;9.226;2023-04-24T01:41:46;12.5;72
79467;SHT30;68933;49.726;9.226;2023-04-24T01:43:59;12.5;72
79467;SHT30;68933;49.726;9.226;2023-04-24T01:46:12;12.6;72
79467;SHT30;68933;49.726;9.226;2023-04-24T01:48:25;12.6;72
79467;SHT30;68933;49.726;9.226;2023-04-24T01:50:39;12.6;72
79467;SHT30;68933;49.726;9.226;2023-04-24T01:52:51;12.6;72
79467;SHT30;68933;49.726;9.226;2023-04-24T01:55:05;12.6;72
79467;SHT30;68933;49.726;9.226;2023-04-24T01:57:17;12.6;72
79467;SHT30;68933;49.726;9.226;2023-04-24T01:59:30;12.6;72
79467;SHT30;68933;49.726;9.226;2023-04-24T02:01:43;12.6;72
79467;SHT30;68933;49.726;9.226;2023-04-24T02:03:56;12.6;72
79467;SHT30;68933;49.726;9.226;2023-04-24T02:06:09;12.6;72
79467;SHT30;68933;49.726;9.226;2023-04-24T02:08:22;12.6;72
79467;SHT30;68933;49.726;9.226;2023-04-24T02:10:35;12.6;72
79467;SHT30;68933;49.726;9.226;2023-04-24T02:12:48;12.6;72
79467;SHT30;68933;49.726;9.226;2023-04-24T02:15:01;12.6;72
79467;SHT30;68933;49.726;9.226;2023-04-24T02:17:14;12.6;72
79467;SHT30;68933;49.726;9.226;2023-04-24T02:19:27;12.6;72
79467;SHT30;68933;49.726;9.226;2023-04-24T02:21:40;12.6;72
79467;SHT30;68933;49.726;9.226;2023-04-24T02:23:53;12.6;72
79467;SHT30;68933;49.726;9.226;2023-04-24T02:26:06;12.6;72
79467;SHT30;68933;49.726;9.226;2023-04-24T02:28:19;12.6;72
79467;SHT30;68933;49.726;9.226;2023-04-24T02:30:32;12.6;72
79467;SHT30;68933;49.726;9.226;2023-04-24T02:32:45;12.6;72
79467;SHT30;68933;49.726;9.226;2023-04-24T02:34:58;12.6;72
79467;SHT30;68933;49.726;9.226;2023-04-24T02:37:11;12.6;72
79467;SHT30;68933;49.726;9.226;2023-04-24T02:39:24;12.6;72
79467;SHT30;68933;49.726;9.226;2023-04-24T02:41:37;12.6;72
79467;SHT30;68933;49.726;9.226;2023-04-24T02:43:50;12.6;72
79467;SHT30;68933;49.726;9.226;2023-04-24T02:46:03;12.6;72
79467;SHT30;68933;49.726;9.226;2023-04-24T02:48:16;12.6;72
79467;SHT30;68933;49.726;9.226;2023-04-24T02:50:29;12.6;72
79467;SHT30;68933;49.726;9.226;2023-04-24T02:52:42;12.6;72
79467;SHT30;68933;49.726;9.226;2023-04-24T02:54:55;12.6;72
79467;SHT30;68933;49.726;9.226;2023-04-24T02:57:08;12.6;72
79467;SHT30;68933;49.726;9.226;2023-04-24T02:59:21;12.6;72
79467;SHT30;68933;49.726;9.226;2023-04-24T03:01:35;12.6;72
79467;SHT30;68933;49.726;9.226;2023-04-24T03:03:47;12.6;72
79467;SHT30;68933;49.726;9.226;2023-04-24T03:06:00;12.6;72
79467;SHT30;68933;49.726;9.226;2023-04-24T03:08:13;12.6;72
79467;SHT30;68933;49.726;9.226;2023-04-24T03:10:26;12.5;72
79467;SHT30;68933;49.726;9.226;2023-04-24T03:12:39;12.5;72
79467;SHT30;68933;49.726;9.226;2023-04-24T03:14:52;12.5;72
79467;SHT30;68933;49.726;9.226;2023-04-24T03:17:05;12.5;72
79467;SHT30;68933;49.726;9.226;2023-04-24T03:19:18;12.5;72
79467;SHT30;68933;49.726;9.226;2023-04-24T03:21:31;12.5;72
79467;SHT30;68933;49.726;9.226;2023-04-24T03:23:44;12.5;72
79467;SHT30;68933;49.726;9.226;2023-04-24T03:25:57;12.5;72
79467;SHT30;68933;49.726;9.226;2023-04-24T03:28:10;12.5;72
79467;SHT30;68933;49.726;9.226;2023-04-24T03:30:23;12.5;72
79467;SHT30;68933;49.726;9.226;2023-04-24T03:32:36;12.5;72
79467;SHT30;68933;49.726;9.226;2023-04-24T03:34:49;12.5;72
79467;SHT30;68933;49.726;9.226;2023-04-24T03:37:02;12.6;72
79467;SHT30;68933;49.726;9.226;2023-04-24T03:39:15;12.6;72
79467;SHT30;68933;49.726;9.226;2023-04-24T03:41:28;12.5;73
79467;SHT30;68933;49.726;9.226;2023-04-24T03:43:41;12.5;73
79467;SHT30;68933;49.726;9.226;2023-04-24T03:45:54;12.5;73
79467;SHT30;68933;49.726;9.226;2023-04-24T03:48:07;12.5;75
79467;SHT30;68933;49.726;9.226;2023-04-24T03:50:20;12.5;75
79467;SHT30;68933;49.726;9.226;2023-04-24T03:52:33;12.4;76
79467;SHT30;68933;49.726;9.226;2023-04-24T03:54:46;12.4;76
79467;SHT30;68933;49.726;9.226;2023-04-24T03:56:59;12.3;76
79467;SHT30;68933;49.726;9.226;2023-04-24T03:59:12;12.3;76
79467;SHT30;68933;49.726;9.226;2023-04-24T04:01:25;12.3;76
79467;SHT30;68933;49.726;9.226;2023-04-24T04:03:38;12.3;76
79467;SHT30;68933;49.726;9.226;2023-04-24T04:05:51;12.3;76
79467;SHT30;68933;49.726;9.226;2023-04-24T04:08:04;12.2;75
79467;SHT30;68933;49.726;9.226;2023-04-24T04:10:17;12.2;75
79467;SHT30;68933;49.726;9.226;2023-04-24T04:12:30;12.2;75
79467;SHT30;68933;49.726;9.226;2023-04-24T04:14:43;12.2;75
79467;SHT30;68933;49.726;9.226;2023-04-24T04:16:56;12.2;75
79467;SHT30;68933;49.726;9.226;2023-04-24T04:19:10;12.2;73
79467;SHT30;68933;49.726;9.226;2023-04-24T04:21:22;12.2;73
79467;SHT30;68933;49.726;9.226;2023-04-24T04:23:35;12.2;73
79467;SHT30;68933;49.726;9.226;2023-04-24T04:25:48;12.1;72
79467;SHT30;68933;49.726;9.226;2023-04-24T04:28:01;12.1;72
79467;SHT30;68933;49.726;9.226;2023-04-24T04:30:14;12.1;72
79467;SHT30;68933;49.726;9.226;2023-04-24T04:32:27;12.1;72
79467;SHT30;68933;49.726;9.226;2023-04-24T04:34:40;12;72
79467;SHT30;68933;49.726;9.226;2023-04-24T04:36:53;12;72
79467;SHT30;68933;49.726;9.226;2023-04-24T04:39:06;12;72
79467;SHT30;68933;49.726;9.226;2023-04-24T04:41:19;12;72
79467;SHT30;68933;49.726;9.226;2023-04-24T04:43:32;12;72
79467;SHT30;68933;49.726;9.226;2023-04-24T04:45:45;11.9;72
79467;SHT30;68933;49.726;9.226;2023-04-24T04:47:58;11.9;72
79467;SHT30;68933;49.726;9.226;2023-04-24T04:50:11;11.8;72
79467;SHT30;68933;49.726;9.226;2023-04-24T04:52:24;11.8;72
79467;SHT30;68933;49.726;9.226;2023-04-24T04:54:37;11.7;71
79467;SHT30;68933;49.726;9.226;2023-04-24T04:56:50;11.7;71
79467;SHT30;68933;49.726;9.226;2023-04-24T04:59:03;11.7;71
79467;SHT30;68933;49.726;9.226;2023-04-24T05:01:16;11.6;72
79467;SHT30;68933;49.726;9.226;2023-04-24T05:03:29;11.6;72
79467;SHT30;68933;49.726;9.226;2023-04-24T05:05:42;11.6;71
79467;SHT30;68933;49.726;9.226;2023-04-24T05:07:55;11.6;71
79467;SHT30;68933;49.726;9.226;2023-04-24T05:10:08;11.5;72
79467;SHT30;68933;49.726;9.226;2023-04-24T05:12:21;11.5;72
79467;SHT30;68933;49.726;9.226;2023-04-24T05:14:34;11.5;72
79467;SHT30;68933;49.726;9.226;2023-04-24T05:16:47;11.5;72
79467;SHT30;68933;49.726;9.226;2023-04-24T05:19:00;11.5;72
79467;SHT30;68933;49.726;9.226;2023-04-24T05:21:13;11.4;71
79467;SHT30;68933;49.726;9.226;2023-04-24T05:23:26;11.4;71
79467;SHT30;68933;49.726;9.226;2023-04-24T05:25:39;11.3;71
79467;SHT30;68933;49.726;9.226;2023-04-24T05:27:52;11.3;71
79467;SHT30;68933;49.726;9.226;2023-04-24T05:30:06;11.3;71
79467;SHT30;68933;49.726;9.226;2023-04-24T05:32:18;11.3;71
79467;SHT30;68933;49.726;9.226;2023-04-24T05:34:31;11.3;71
79467;SHT30;68933;49.726;9.226;2023-04-24T05:36:44;11.2;71
79467;SHT30;68933;49.726;9.226;2023-04-24T05:38:57;11.2;71
79467;SHT30;68933;49.726;9.226;2023-04-24T05:41:10;11.2;71
79467;SHT30;68933;49.726;9.226;2023-04-24T05:43:23;11.2;71
79467;SHT30;68933;49.726;9.226;2023-04-24T05:45:36;11.1;71
79467;SHT30;68933;49.726;9.226;2023-04-24T05:47:49;11.1;71
79467;SHT30;68933;49.726;9.226;2023-04-24T05:50:02;11.1;71
79467;SHT30;68933;49.726;9.226;2023-04-24T05:52:15;11.1;71
79467;SHT30;68933;49.726;9.226;2023-04-24T05:54:28;11.1;72
79467;SHT30;68933;49.726;9.226;2023-04-24T05:56:41;11.1;72
79467;SHT30;68933;49.726;9.226;2023-04-24T05:58:54;11.1;71
79467;SHT30;68933;49.726;9.226;2023-04-24T06:01:07;11.1;71
79467;SHT30;68933;49.726;9.226;2023-04-24T06:03:20;11.1;71
79467;SHT30;68933;49.726;9.226;2023-04-24T06:05:33;11.1;71
79467;SHT30;68933;49.726;9.226;2023-04-24T06:07:47;11.1;71
79467;SHT30;68933;49.726;9.226;2023-04-24T06:09:59;11.2;69
79467;SHT30;68933;49.726;9.226;2023-04-24T06:12:12;11.2;69
79467;SHT30;68933;49.726;9.226;2023-04-24T06:14:25;11.2;71
79467;SHT30;68933;49.726;9.226;2023-04-24T06:16:39;11.2;71
79467;SHT30;68933;49.726;9.226;2023-04-24T06:18:51;11.3;71
79467;SHT30;68933;49.726;9.226;2023-04-24T06:21:04;11.3;71
79467;SHT30;68933;49.726;9.226;2023-04-24T06:23:17;11.3;71
79467;SHT30;68933;49.726;9.226;2023-04-24T06:25:30;11.4;71
79467;SHT30;68933;49.726;9.226;2023-04-24T06:27:43;11.4;71
79467;SHT30;68933;49.726;9.226;2023-04-24T06:29:56;11.5;69
79467;SHT30;68933;49.726;9.226;2023-04-24T06:32:09;11.5;69
79467;SHT30;68933;49.726;9.226;2023-04-24T06:34:22;11.5;69
79467;SHT30;68933;49.726;9.226;2023-04-24T06:36:35;11.6;68
79467;SHT30;68933;49.726;9.226;2023-04-24T06:38:48;11.6;68
79467;SHT30;68933;49.726;9.226;2023-04-24T06:41:01;11.7;67
79467;SHT30;68933;49.726;9.226;2023-04-24T06:43:14;11.7;67
79467;SHT30;68933;49.726;9.226;2023-04-24T06:45:27;11.7;67
79467;SHT30;68933;49.726;9.226;2023-04-24T06:47:40;11.9;67
79467;SHT30;68933;49.726;9.226;2023-04-24T06:49:53;11.9;67
79467;SHT30;68933;49.726;9.226;2023-04-24T06:52:06;12;65
79467;SHT30;68933;49.726;9.226;2023-04-24T06:54:19;12;65
79467;SHT30;68933;49.726;9.226;2023-04-24T06:56:32;12.2;65
79467;SHT30;68933;49.726;9.226;2023-04-24T06:58:45;12.2;65
79467;SHT30;68933;49.726;9.226;2023-04-24T07:00:58;12.2;65
79467;SHT30;68933;49.726;9.226;2023-04-24T07:03:11;12.4;64
79467;SHT30;68933;49.726;9.226;2023-04-24T07:05:24;12.4;64
79467;SHT30;68933;49.726;9.226;2023-04-24T07:07:37;12.4;64
79467;SHT30;68933;49.726;9.226;2023-04-24T07:09:50;12.4;64
79467;SHT30;68933;49.726;9.226;2023-04-24T07:12:03;12.4;64
79467;SHT30;68933;49.726;9.226;2023-04-24T07:14:16;12.5;64
79467;SHT30;68933;49.726;9.226;2023-04-24T07:16:29;12.5;64
79467;SHT30;68933;49.726;9.226;2023-04-24T07:18:42;12.5;63
79467;SHT30;68933;49.726;9.226;2023-04-24T07:20:55;12.5;63
79467;SHT30;68933;49.726;9.226;2023-04-24T07:23:08;12.6;63
79467;SHT30;68933;49.726;9.226;2023-04-24T07:25:21;12.6;63
79467;SHT30;68933;49.726;9.226;2023-04-24T07:27:34;12.6;63
79467;SHT30;68933;49.726;9.226;2023-04-24T07:29:47;12.6;63
79467;SHT30;68933;49.726;9.226;2023-04-24T07:32:00;12.6;63
79467;SHT30;68933;49.726;9.226;2023-04-24T07:34:13;12.6;63
79467;SHT30;68933;49.726;9.226;2023-04-24T07:36:26;12.6;63
79467;SHT30;68933;49.726;9.226;2023-04-24T07:38:39;12.5;63
79467;SHT30;68933;49.726;9.226;2023-04-24T07:40:52;12.5;63
79467;SHT30;68933;49.726;9.226;2023-04-24T07:43:05;12.5;63
79467;SHT30;68933;49.726;9.226;2023-04-24T07:45:18;12.4;63
79467;SHT30;68933;49.726;9.226;2023-04-24T07:47:31;12.4;63
79467;SHT30;68933;49.726;9.226;2023-04-24T07:49:45;12.4;63
79467;SHT30;68933;49.726;9.226;2023-04-24T07:51:57;12.4;63
79467;SHT30;68933;49.726;9.226;2023-04-24T07:54:10;12.5;63
79467;SHT30;68933;49.726;9.226;2023-04-24T07:56:23;12.5;63
79467;SHT30;68933;49.726;9.226;2023-04-24T07:58:36;12.5;63
79467;SHT30;68933;49.726;9.226;2023-04-24T08:00:49;12.5;63
79467;SHT30;68933;49.726;9.226;2023-04-24T08:03:02;12.5;63
79467;SHT30;68933;49.726;9.226;2023-04-24T08:05:15;12.5;60
79467;SHT30;68933;49.726;9.226;2023-04-24T08:07:28;12.5;60
79467;SHT30;68933;49.726;9.226;2023-04-24T08:09:41;12.7;60
79467;SHT30;68933;49.726;9.226;2023-04-24T08:11:54;12.7;60
79467;SHT30;68933;49.726;9.226;2023-04-24T08:14:07;12.7;60
79467;SHT30;68933;49.726;9.226;2023-04-24T08:16:20;12.7;60
79467;SHT30;68933;49.726;9.226;2023-04-24T08:18:33;12.7;60
79467;SHT30;68933;49.726;9.226;2023-04-24T08:20:46;12.8;59
79467;SHT30;68933;49.726;9.226;2023-04-24T08:22:59;12.8;59
79467;SHT30;68933;49.726;9.226;2023-04-24T08:25:12;12.9;59
79467;SHT30;68933;49.726;9.226;2023-04-24T08:27:25;12.9;59
79467;SHT30;68933;49.726;9.226;2023-04-24T08:29:38;12.9;59
79467;SHT30;68933;49.726;9.226;2023-04-24T08:31:51;12.9;59
79467;SHT30;68933;49.726;9.226;2023-04-24T08:34:04;13.2;59
79467;SHT30;68933;49.726;9.226;2023-04-24T08:36:17;13.2;59
79467;SHT30;68933;49.726;9.226;2023-04-24T08:38:30;13.2;59
79467;SHT30;68933;49.726;9.226;2023-04-24T08:40:43;13.5;57
79467;SHT30;68933;49.726;9.226;2023-04-24T08:42:56;13.5;57
79467;SHT30;68933;49.726;9.226;2023-04-24T08:45:10;13.7;57
79467;SHT30;68933;49.726;9.226;2023-04-24T08:47:22;13.7;57
79467;SHT30;68933;49.726;9.226;2023-04-24T08:49:35;14.1;56
79467;SHT30;68933;49.726;9.226;2023-04-24T08:51:48;14.1;56
79467;SHT30;68933;49.726;9.226;2023-04-24T08:54:01;14.2;53
79467;SHT30;68933;49.726;9.226;2023-04-24T08:56:14;14.2;53
79467;SHT30;68933;49.726;9.226;2023-04-24T08:58:28;14.2;55
79467;SHT30;68933;49.726;9.226;2023-04-24T09:00:40;14.2;55
79467;SHT30;68933;49.726;9.226;2023-04-24T09:02:53;14.2;55
79467;SHT30;68933;49.726;9.226;2023-04-24T09:05:06;14.1;53
79467;SHT30;68933;49.726;9.226;2023-04-24T09:07:19;14.1;53
79467;SHT30;68933;49.726;9.226;2023-04-24T09:09:32;13.7;55
79467;SHT30;68933;49.726;9.226;2023-04-24T09:11:45;13.7;55
79467;SHT30;68933;49.726;9.226;2023-04-24T09:13:58;13.6;55
79467;SHT30;68933;49.726;9.226;2023-04-24T09:16:11;13.6;55
79467;SHT30;68933;49.726;9.226;2023-04-24T09:18:25;13.6;55
79467;SHT30;68933;49.726;9.226;2023-04-24T09:20:56;13.6;55
79467;SHT30;68933;49.726;9.226;2023-04-24T09:22:53;13.5;55
79467;SHT30;68933;49.726;9.226;2023-04-24T09:25:04;13.5;55
79467;SHT30;68933;49.726;9.226;2023-04-24T09:27:16;13.5;56
79467;SHT30;68933;49.726;9.226;2023-04-24T09:29:29;13.5;56
79467;SHT30;68933;49.726;9.226;2023-04-24T09:31:42;13.5;56
79467;SHT30;68933;49.726;9.226;2023-04-24T09:33:56;13.6;56
79467;SHT30;68933;49.726;9.226;2023-04-24T09:36:08;13.6;56
79467;SHT30;68933;49.726;9.226;2023-04-24T09:38:29;13.6;55
79467;SHT30;68933;49.726;9.226;2023-04-24T09:40:34;13.6;55
79467;SHT30;68933;49.726;9.226;2023-04-24T09:42:51;13.6;55
79467;SHT30;68933;49.726;9.226;2023-04-24T09:45:00;13.7;55
79467;SHT30;68933;49.726;9.226;2023-04-24T09:47:13;13.7;55
79467;SHT30;68933;49.726;9.226;2023-04-24T09:49:27;13.8;53
79467;SHT30;68933;49.726;9.226;2023-04-24T09:51:39;13.8;53
79467;SHT30;68933;49.726;9.226;2023-04-24T09:53:52;13.8;53
79467;SHT30;68933;49.726;9.226;2023-04-24T09:56:06;13.8;53
79467;SHT30;68933;49.726;9.226;2023-04-24T09:58:18;13.8;53
79467;SHT30;68933;49.726;9.226;2023-04-24T10:00:32;13.7;53
79467;SHT30;68933;49.726;9.226;2023-04-24T10:02:44;13.7;53
79467;SHT30;68933;49.726;9.226;2023-04-24T10:04:57;13.6;53
79467;SHT30;68933;49.726;9.226;2023-04-24T10:07:10;13.6;53
79467;SHT30;68933;49.726;9.226;2023-04-24T10:09:24;13.6;53
79467;SHT30;68933;49.726;9.226;2023-04-24T10:11:36;13.6;53
79467;SHT30;68933;49.726;9.226;2023-04-24T10:13:49;13.6;53
79467;SHT30;68933;49.726;9.226;2023-04-24T10:16:02;13.7;53
79467;SHT30;68933;49.726;9.226;2023-04-24T10:18:15;13.7;53
79467;SHT30;68933;49.726;9.226;2023-04-24T10:20:29;13.7;53
79467;SHT30;68933;49.726;9.226;2023-04-24T10:22:41;13.9;52
79467;SHT30;68933;49.726;9.226;2023-04-24T10:24:54;13.9;52
79467;SHT30;68933;49.726;9.226;2023-04-24T10:27:07;13.8;52
79467;SHT30;68933;49.726;9.226;2023-04-24T10:29:20;13.8;52
79467;SHT30;68933;49.726;9.226;2023-04-24T10:31:33;13.8;52
79467;SHT30;68933;49.726;9.226;2023-04-24T10:33:46;13.8;52
79467;SHT30;68933;49.726;9.226;2023-04-24T10:35:59;13.8;52
79467;SHT30;68933;49.726;9.226;2023-04-24T10:38:13;13.8;53
79467;SHT30;68933;49.726;9.226;2023-04-24T10:40:26;13.8;53
79467;SHT30;68933;49.726;9.226;2023-04-24T10:42:39;13.9;53
79467;SHT30;68933;49.726;9.226;2023-04-24T10:44:51;13.9;53
79467;SHT30;68933;49.726;9.226;2023-04-24T10:47:04;13.9;53
79467;SHT30;68933;49.726;9.226;2023-04-24T10:49:17;13.9;53
79467;SHT30;68933;49.726;9.226;2023-04-24T10:51:42;13.9;53
79467;SHT30;68933;49.726;9.226;2023-04-24T10:53:43;14.2;53
79467;SHT30;68933;49.726;9.226;2023-04-24T10:55:57;14.2;53
79467;SHT30;68933;49.726;9.226;2023-04-24T10:58:09;14.4;53
79467;SHT30;68933;49.726;9.226;2023-04-24T11:00:24;14.4;53
79467;SHT30;68933;49.726;9.226;2023-04-24T11:02:36;14.4;53
79467;SHT30;68933;49.726;9.226;2023-04-24T11:04:49;14.3;53
79467;SHT30;68933;49.726;9.226;2023-04-24T11:07:02;14.3;53
79467;SHT30;68933;49.726;9.226;2023-04-24T11:09:14;14;59
79467;SHT30;68933;49.726;9.226;2023-04-24T11:11:28;14;59
79467;SHT30;68933;49.726;9.226;2023-04-24T11:14:14;14.2;60
79467;SHT30;68933;49.726;9.226;2023-04-24T11:16:25;14.2;60
79467;SHT30;68933;49.726;9.226;2023-04-24T11:18:06;14.2;60
79467;SHT30;68933;49.726;9.226;2023-04-24T11:20:22;14.4;59
79467;SHT30;68933;49.726;9.226;2023-04-24T11:22:33;14.4;59
79467;SHT30;68933;49.726;9.226;2023-04-24T11:24:49;14.9;56
79467;SHT30;68933;49.726;9.226;2023-04-24T11:26:59;14.9;56
79467;SHT30;68933;49.726;9.226;2023-04-24T11:29:11;15.1;53
79467;SHT30;68933;49.726;9.226;2023-04-24T11:31:40;15.1;53
79467;SHT30;68933;49.726;9.226;2023-04-24T11:33:37;15.1;53
79467;SHT30;68933;49.726;9.226;2023-04-24T11:35:50;15.1;53
79467;SHT30;68933;49.726;9.226;2023-04-24T11:38:03;15.2;52
79467;SHT30;68933;49.726;9.226;2023-04-24T11:40:17;15.2;52
79467;SHT30;68933;49.726;9.226;2023-04-24T11:42:33;15.2;52
79467;SHT30;68933;49.726;9.226;2023-04-24T11:44:42;15.1;52
79467;SHT30;68933;49.726;9.226;2023-04-24T11:46:55;15.1;52
79467;SHT30;68933;49.726;9.226;2023-04-24T11:49:08;15.1;52
79467;SHT30;68933;49.726;9.226;2023-04-24T11:51:22;15.1;52
79467;SHT30;68933;49.726;9.226;2023-04-24T11:53:35;15.4;51
79467;SHT30;68933;49.726;9.226;2023-04-24T11:55:47;15.4;51
79467;SHT30;68933;49.726;9.226;2023-04-24T11:58:00;15.4;51
79467;SHT30;68933;49.726;9.226;2023-04-24T12:00:15;15.6;51
79467;SHT30;68933;49.726;9.226;2023-04-24T12:02:26;15.6;51
79467;SHT30;68933;49.726;9.226;2023-04-24T12:04:39;15.7;50
79467;SHT30;68933;49.726;9.226;2023-04-24T12:06:59;15.7;50
79467;SHT30;68933;49.726;9.226;2023-04-24T12:09:05;15.9;50
79467;SHT30;68933;49.726;9.226;2023-04-24T12:11:18;15.9;50
79467;SHT30;68933;49.726;9.226;2023-04-24T12:13:31;16;49
79467;SHT30;68933;49.726;9.226;2023-04-24T12:15:44;16;49
79467;SHT30;68933;49.726;9.226;2023-04-24T12:17:57;16.2;49
79467;SHT30;68933;49.726;9.226;2023-04-24T12:20:11;16.2;49
79467;SHT30;68933;49.726;9.226;2023-04-24T12:22:23;16.1;49
79467;SHT30;68933;49.726;9.226;2023-04-24T12:24:54;16.1;49
79467;SHT30;68933;49.726;9.226;2023-04-24T12:26:49;16.1;49
79467;SHT30;68933;49.726;9.226;2023-04-24T12:29:02;16.2;49
79467;SHT30;68933;49.726;9.226;2023-04-24T12:31:15;16.2;49
79467;SHT30;68933;49.726;9.226;2023-04-24T12:33:32;16;48
79467;SHT30;68933;49.726;9.226;2023-04-24T12:35:41;16;48
79467;SHT30;68933;49.726;9.226;2023-04-24T12:37:54;16;49
79467;SHT30;68933;49.726;9.226;2023-04-24T12:40:08;16;49
79467;SHT30;68933;49.726;9.226;2023-04-24T12:42:25;15.8;49
79467;SHT30;68933;49.726;9.226;2023-04-24T12:44:34;15.8;49
79467;SHT30;68933;49.726;9.226;2023-04-24T12:46:46;15.8;49
79467;SHT30;68933;49.726;9.226;2023-04-24T12:48:59;15.5;49
79467;SHT30;68933;49.726;9.226;2023-04-24T12:51:12;15.5;49
79467;SHT30;68933;49.726;9.226;2023-04-24T12:53:25;15.7;50
79467;SHT30;68933;49.726;9.226;2023-04-24T12:55:38;15.7;50
79467;SHT30;68933;49.726;9.226;2023-04-24T12:57:51;15.9;50
79467;SHT30;68933;49.726;9.226;2023-04-24T13:00:05;15.9;50
79467;SHT30;68933;49.726;9.226;2023-04-24T13:02:18;15.9;50
79467;SHT30;68933;49.726;9.226;2023-04-24T13:04:30;15.9;49
79467;SHT30;68933;49.726;9.226;2023-04-24T13:06:43;15.9;49
79467;SHT30;68933;49.726;9.226;2023-04-24T13:08:56;15.7;52
79467;SHT30;68933;49.726;9.226;2023-04-24T13:11:09;15.7;52
79467;SHT30;68933;49.726;9.226;2023-04-24T13:13:22;15.7;52
79467;SHT30;68933;49.726;9.226;2023-04-24T13:15:35;15.5;54
79467;SHT30;68933;49.726;9.226;2023-04-24T13:17:48;15.5;54
79467;SHT30;68933;49.726;9.226;2023-04-24T13:20:01;15.4;56
79467;SHT30;68933;49.726;9.226;2023-04-24T13:22:14;15.4;56
79467;SHT30;68933;49.726;9.226;2023-04-24T13:24:27;15.4;56
79467;SHT30;68933;49.726;9.226;2023-04-24T13:26:40;15.1;58
79467;SHT30;68933;49.726;9.226;2023-04-24T13:28:53;15.1;58
79467;SHT30;68933;49.726;9.226;2023-04-24T13:31:06;14.8;60
79467;SHT30;68933;49.726;9.226;2023-04-24T13:33:19;14.8;60
79467;SHT30;68933;49.726;9.226;2023-04-24T13:35:32;14.8;61
79467;SHT30;68933;49.726;9.226;2023-04-24T13:37:45;14.8;61
79467;SHT30;68933;49.726;9.226;2023-04-24T13:39:58;14.8;61
79467;SHT30;68933;49.726;9.226;2023-04-24T13:42:11;15.1;62
79467;SHT30;68933;49.726;9.226;2023-04-24T13:44:24;15.1;62
79467;SHT30;68933;49.726;9.226;2023-04-24T13:46:37;15.7;60
79467;SHT30;68933;49.726;9.226;2023-04-24T13:48:50;15.7;60
79467;SHT30;68933;49.726;9.226;2023-04-24T13:51:03;16.4;57
79467;SHT30;68933;49.726;9.226;2023-04-24T13:53:16;16.4;57
79467;SHT30;68933;49.726;9.226;2023-04-24T13:55:29;16.4;57
79467;SHT30;68933;49.726;9.226;2023-04-24T13:57:42;16.4;54
79467;SHT30;68933;49.726;9.226;2023-04-24T13:59:55;16.4;54
79467;SHT30;68933;49.726;9.226;2023-04-24T14:02:08;16.4;53
79467;SHT30;68933;49.726;9.226;2023-04-24T14:04:21;16.4;53
79467;SHT30;68933;49.726;9.226;2023-04-24T14:06:34;16.6;53
79467;SHT30;68933;49.726;9.226;2023-04-24T14:08:47;16.6;53
79467;SHT30;68933;49.726;9.226;2023-04-24T14:11:00;16.6;53
79467;SHT30;68933;49.726;9.226;2023-04-24T14:13:13;16.7;50
79467;SHT30;68933;49.726;9.226;2023-04-24T14:15:26;16.7;50
79467;SHT30;68933;49.726;9.226;2023-04-24T14:17:39;16.8;50
79467;SHT30;68933;49.726;9.226;2023-04-24T14:19:52;16.8;50
79467;SHT30;68933;49.726;9.226;2023-04-24T14:22:05;17.3;50
79467;SHT30;68933;49.726;9.226;2023-04-24T14:24:18;17.3;50
79467;SHT30;68933;49.726;9.226;2023-04-24T14:26:31;17.3;50
79467;SHT30;68933;49.726;9.226;2023-04-24T14:28:44;17.9;49
79467;SHT30;68933;49.726;9.226;2023-04-24T14:30:57;17.9;49
79467;SHT30;68933;49.726;9.226;2023-04-24T14:33:10;17.9;48
79467;SHT30;68933;49.726;9.226;2023-04-24T14:35:23;17.9;48
79467;SHT30;68933;49.726;9.226;2023-04-24T14:37:36;17.9;48
79467;SHT30;68933;49.726;9.226;2023-04-24T14:39:49;17.9;48
79467;SHT30;68933;49.726;9.226;2023-04-24T14:42:02;18.1;46
79467;SHT30;68933;49.726;9.226;2023-04-24T14:44:15;18.1;46
79467;SHT30;68933;49.726;9.226;2023-04-24T14:46:28;18.2;46
79467;SHT30;68933;49.726;9.226;2023-04-24T14:48:41;18.2;46
79467;SHT30;68933;49.726;9.226;2023-04-24T14:50:54;18.2;46
79467;SHT30;68933;49.726;9.226;2023-04-24T14:53:07;18.3;45
79467;SHT30;68933;49.726;9.226;2023-04-24T14:55:20;18.3;45
79467;SHT30;68933;49.726;9.226;2023-04-24T14:57:33;18.3;45
79467;SHT30;68933;49.726;9.226;2023-04-24T14:59:46;18.3;45